createdAt,value
2023-05-07T00:00:19.041Z,3.72
2023-05-07T00:02:48.881Z,3.38
2023-05-07T00:05:16.185Z,3.22
2023-05-07T00:07:43.062Z,3.10
2023-05-07T00:10:11.496Z,3.47
2023-05-07T00:12:38.249Z,3.38
2023-05-07T00:15:05.683Z,3.28
2023-05-07T00:17:32.482Z,2.83
2023-05-07T00:19:58.962Z,3.10
2023-05-07T00:22:25.530Z,3.50
2023-05-07T00:24:52.040Z,3.50
2023-05-07T00:27:18.535Z,3.53
2023-05-07T00:29:45.037Z,3.50
2023-05-07T00:32:11.681Z,3.92
2023-05-07T00:34:38.270Z,3.80
2023-05-07T00:37:06.614Z,3.30
2023-05-07T00:39:33.357Z,3.53
2023-05-07T00:42:01.646Z,3.40
2023-05-07T00:44:29.406Z,3.90
2023-05-07T00:46:57.933Z,3.83
2023-05-07T00:49:38.552Z,3.60
2023-05-07T00:52:07.670Z,3.28
2023-05-07T00:54:35.198Z,3.45
2023-05-07T00:57:03.499Z,3.47
2023-05-07T00:59:30.232Z,3.88
2023-05-07T01:01:58.807Z,3.30
2023-05-07T01:04:25.781Z,3.50
2023-05-07T01:06:54.735Z,3.85
2023-05-07T01:09:21.964Z,3.58
2023-05-07T01:11:50.016Z,3.58
2023-05-07T01:14:17.236Z,4.15
2023-05-07T01:16:43.793Z,3.75
2023-05-07T01:19:12.551Z,3.40
2023-05-07T01:21:39.726Z,3.88
2023-05-07T01:24:06.801Z,3.30
2023-05-07T01:26:33.680Z,3.78
2023-05-07T01:29:00.200Z,3.22
2023-05-07T01:31:26.900Z,3.83
2023-05-07T01:33:54.836Z,3.70
2023-05-07T01:36:23.963Z,3.45
2023-05-07T01:38:51.079Z,3.45
2023-05-07T01:41:17.567Z,3.33
2023-05-07T01:43:44.364Z,3.20
2023-05-07T01:46:11.938Z,3.40
2023-05-07T01:48:39.519Z,3.40
2023-05-07T01:51:07.104Z,3.88
2023-05-07T01:53:38.245Z,3.42
2023-05-07T01:56:05.164Z,3.70
2023-05-07T01:58:31.752Z,3.40
2023-05-07T02:00:58.222Z,3.40
2023-05-07T02:03:24.741Z,3.88
2023-05-07T02:05:51.365Z,3.65
2023-05-07T02:08:17.805Z,3.53
2023-05-07T02:10:44.273Z,3.05
2023-05-07T02:13:10.891Z,3.03
2023-05-07T02:15:37.375Z,3.40
2023-05-07T02:18:10.035Z,3.67
2023-05-07T02:20:36.572Z,3.50
2023-05-07T02:23:03.130Z,3.20
2023-05-07T02:25:30.231Z,3.70
2023-05-07T02:27:56.843Z,4.00
2023-05-07T02:30:23.397Z,4.38
2023-05-07T02:32:49.977Z,4.45
2023-05-07T02:35:16.631Z,3.65
2023-05-07T02:37:43.461Z,3.90
2023-05-07T02:40:11.016Z,4.90
2023-05-07T02:42:37.774Z,4.07
2023-05-07T02:45:04.716Z,4.13
2023-05-07T02:47:31.379Z,4.13
2023-05-07T02:49:57.865Z,4.10
2023-05-07T02:52:24.472Z,4.40
2023-05-07T02:54:51.463Z,4.25
2023-05-07T02:57:17.970Z,4.45
2023-05-07T02:59:45.185Z,4.35
2023-05-07T03:02:11.752Z,4.13
2023-05-07T03:04:39.038Z,4.10
2023-05-07T03:07:05.787Z,4.68
2023-05-07T03:09:32.299Z,4.22
2023-05-07T03:11:58.769Z,4.55
2023-05-07T03:14:25.355Z,3.75
2023-05-07T03:16:51.942Z,4.25
2023-05-07T03:19:18.447Z,3.95
2023-05-07T03:21:44.951Z,3.90
2023-05-07T03:24:11.430Z,4.57
2023-05-07T03:26:37.900Z,4.10
2023-05-07T03:29:04.416Z,3.60
2023-05-07T03:31:31.076Z,3.92
2023-05-07T03:33:58.464Z,3.80
2023-05-07T03:36:26.160Z,3.40
2023-05-07T03:38:52.674Z,3.58
2023-05-07T03:41:19.222Z,3.80
2023-05-07T03:43:45.762Z,4.38
2023-05-07T03:46:12.267Z,4.43
2023-05-07T03:48:38.941Z,3.83
2023-05-07T03:51:05.517Z,4.22
2023-05-07T03:53:32.022Z,4.15
2023-05-07T03:55:58.777Z,3.55
2023-05-07T03:58:25.308Z,3.60
2023-05-07T04:00:51.809Z,3.88
2023-05-07T04:03:18.339Z,3.60
2023-05-07T04:05:44.963Z,3.67
2023-05-07T04:08:11.461Z,3.40
2023-05-07T04:10:37.975Z,4.20
2023-05-07T04:13:04.559Z,4.55
2023-05-07T04:15:31.090Z,4.20
2023-05-07T04:17:57.662Z,4.05
2023-05-07T04:20:24.534Z,3.83
2023-05-07T04:22:51.106Z,4.13
2023-05-07T04:25:17.584Z,4.30
2023-05-07T04:27:44.072Z,4.53
2023-05-07T04:30:11.398Z,5.10
2023-05-07T04:32:40.073Z,4.32
2023-05-07T04:35:07.153Z,4.15
2023-05-07T04:37:33.840Z,5.45
2023-05-07T04:40:01.315Z,4.80
2023-05-07T04:42:27.960Z,5.10
2023-05-07T04:44:55.031Z,5.18
2023-05-07T04:47:21.519Z,4.63
2023-05-07T04:49:47.955Z,4.60
2023-05-07T04:52:14.385Z,4.30
2023-05-07T04:54:40.834Z,4.25
2023-05-07T04:57:07.795Z,4.70
2023-05-07T04:59:34.418Z,4.72
2023-05-07T05:02:01.303Z,4.10
2023-05-07T05:04:28.059Z,4.40
2023-05-07T05:06:54.527Z,4.40
2023-05-07T05:09:21.176Z,4.57
2023-05-07T05:11:47.672Z,4.40
2023-05-07T05:14:14.250Z,4.43
2023-05-07T05:16:41.057Z,5.05
2023-05-07T05:19:07.720Z,4.68
2023-05-07T05:21:34.291Z,4.95
2023-05-07T05:24:00.871Z,4.55
2023-05-07T05:26:27.372Z,4.00
2023-05-07T05:28:53.914Z,5.00
2023-05-07T05:31:20.427Z,3.90
2023-05-07T05:33:46.930Z,4.63
2023-05-07T05:36:14.182Z,3.67
2023-05-07T05:38:41.325Z,4.30
2023-05-07T05:41:07.827Z,3.85
2023-05-07T05:43:34.385Z,4.10
2023-05-07T05:46:01.779Z,3.88
2023-05-07T05:48:30.104Z,4.05
2023-05-07T05:50:56.610Z,4.13
2023-05-07T05:53:23.167Z,3.88
2023-05-07T05:55:50.594Z,4.38
2023-05-07T05:58:17.117Z,4.20
2023-05-07T06:00:43.660Z,4.03
2023-05-07T06:03:11.446Z,4.07
2023-05-07T06:05:37.935Z,4.18
2023-05-07T06:08:04.636Z,4.22
2023-05-07T06:10:31.681Z,4.00
2023-05-07T06:12:58.180Z,4.10
2023-05-07T06:15:24.636Z,4.95
2023-05-07T06:17:51.193Z,3.35
2023-05-07T06:20:17.709Z,3.45
2023-05-07T06:22:44.160Z,3.38
2023-05-07T06:25:11.023Z,3.00
2023-05-07T06:27:37.556Z,2.45
2023-05-07T06:30:04.390Z,2.85
2023-05-07T06:32:30.987Z,3.22
2023-05-07T06:34:57.518Z,2.90
2023-05-07T06:37:23.982Z,3.10
2023-05-07T06:39:50.532Z,2.75
2023-05-07T06:42:17.153Z,3.15
2023-05-07T06:44:43.595Z,3.22
2023-05-07T06:47:10.069Z,3.13
2023-05-07T06:49:36.570Z,3.13
2023-05-07T06:52:03.144Z,2.80
2023-05-07T06:54:30.085Z,3.22
2023-05-07T06:56:56.628Z,2.97
2023-05-07T06:59:23.207Z,3.05
2023-05-07T07:01:49.791Z,3.10
2023-05-07T07:04:16.413Z,3.10
2023-05-07T07:06:42.951Z,3.17
2023-05-07T07:09:09.517Z,2.97
2023-05-07T07:11:36.217Z,2.83
2023-05-07T07:14:02.737Z,2.83
2023-05-07T07:16:29.282Z,2.78
2023-05-07T07:18:55.899Z,2.75
2023-05-07T07:21:22.407Z,2.70
2023-05-07T07:23:48.917Z,2.58
2023-05-07T07:26:15.716Z,2.85
2023-05-07T07:28:46.563Z,2.58
2023-05-07T07:31:13.828Z,2.55
2023-05-07T07:33:40.825Z,2.42
2023-05-07T07:36:08.300Z,2.65
2023-05-07T07:38:35.202Z,2.63
2023-05-07T07:41:02.521Z,2.33
2023-05-07T07:43:29.143Z,2.60
2023-05-07T07:45:55.692Z,2.08
2023-05-07T07:48:22.319Z,2.20
2023-05-07T07:50:54.534Z,2.30
2023-05-07T07:53:21.303Z,2.03
2023-05-07T07:55:47.823Z,2.30
2023-05-07T07:58:14.376Z,2.08
2023-05-07T08:00:40.861Z,2.40
2023-05-07T08:03:10.756Z,1.90
2023-05-07T08:05:37.627Z,2.55
2023-05-07T08:08:04.364Z,2.95
2023-05-07T08:10:30.906Z,2.17
2023-05-07T08:12:57.538Z,2.10
2023-05-07T08:15:24.082Z,1.90
2023-05-07T08:17:50.615Z,1.80
2023-05-07T08:20:17.122Z,2.05
2023-05-07T08:22:43.657Z,1.60
2023-05-07T08:25:10.626Z,1.90
2023-05-07T08:27:37.167Z,2.05
2023-05-07T08:30:04.704Z,2.30
2023-05-07T08:32:31.278Z,2.30
2023-05-07T08:34:57.868Z,1.70
2023-05-07T08:37:24.402Z,1.80
2023-05-07T08:39:50.878Z,2.33
2023-05-07T08:42:18.242Z,2.00
2023-05-07T08:44:48.068Z,1.90
2023-05-07T08:47:14.846Z,1.60
2023-05-07T08:49:41.473Z,2.00
2023-05-07T08:52:09.844Z,2.20
2023-05-07T08:54:38.773Z,2.00
2023-05-07T08:57:05.342Z,2.03
2023-05-07T08:59:31.949Z,1.92
2023-05-07T09:01:58.789Z,1.80
2023-05-07T09:04:25.792Z,1.80
2023-05-07T09:06:52.724Z,1.98
2023-05-07T09:09:22.058Z,1.92
2023-05-07T09:11:48.582Z,2.10
2023-05-07T09:14:15.071Z,1.70
2023-05-07T09:16:41.815Z,2.13
2023-05-07T09:19:08.434Z,1.80
2023-05-07T09:21:35.064Z,1.88
2023-05-07T09:24:01.595Z,2.45
2023-05-07T09:26:29.279Z,2.03
2023-05-07T09:28:55.985Z,2.00
2023-05-07T09:31:24.558Z,1.50
2023-05-07T09:33:51.335Z,2.13
2023-05-07T09:36:18.837Z,1.85
2023-05-07T09:38:46.707Z,2.42
2023-05-07T09:41:14.488Z,2.50
2023-05-07T09:43:41.748Z,2.15
2023-05-07T09:46:12.521Z,2.25
2023-05-07T09:48:41.028Z,2.15
2023-05-07T09:51:28.085Z,2.10
2023-05-07T09:53:55.029Z,1.65
2023-05-07T09:56:22.427Z,1.92
2023-05-07T09:58:50.534Z,1.90
2023-05-07T10:01:20.275Z,2.28
2023-05-07T10:03:47.643Z,2.22
2023-05-07T10:06:15.556Z,2.95
2023-05-07T10:08:44.001Z,1.90
2023-05-07T10:11:10.927Z,1.42
2023-05-07T10:13:39.048Z,1.50
2023-05-07T10:16:06.442Z,1.30
2023-05-07T10:18:33.843Z,1.95
2023-05-07T10:21:09.683Z,2.00
2023-05-07T10:23:37.150Z,1.85
2023-05-07T10:26:06.276Z,1.77
2023-05-07T10:28:39.738Z,1.77
2023-05-07T10:31:25.465Z,1.50
2023-05-07T10:33:54.048Z,1.40
2023-05-07T10:36:22.407Z,1.20
2023-05-07T10:38:48.933Z,1.17
2023-05-07T10:41:17.563Z,0.80
2023-05-07T10:43:46.325Z,1.25
2023-05-07T10:46:17.378Z,1.05
2023-05-07T10:49:02.954Z,1.38
2023-05-07T10:51:30.987Z,1.70
2023-05-07T10:54:19.972Z,1.20
2023-05-07T10:56:48.650Z,1.25
2023-05-07T10:59:21.407Z,1.10
2023-05-07T11:04:18.702Z,1.30
2023-05-07T11:07:09.479Z,1.45
2023-05-07T11:09:54.009Z,1.08
2023-05-07T11:12:38.913Z,1.30
2023-05-07T11:15:09.622Z,1.90
2023-05-07T11:17:57.312Z,1.30
2023-05-07T11:20:56.399Z,2.42
2023-05-07T11:23:35.349Z,1.50
2023-05-07T11:26:06.462Z,3.10
2023-05-07T11:28:41.112Z,2.03
2023-05-07T11:31:08.453Z,1.27
2023-05-07T11:33:36.323Z,1.10
2023-05-07T11:36:04.398Z,1.30
2023-05-07T11:38:31.691Z,1.55
2023-05-07T11:41:05.211Z,1.80
2023-05-07T11:43:33.465Z,1.63
2023-05-07T11:46:08.900Z,2.13
2023-05-07T11:48:36.151Z,1.77
2023-05-07T11:51:09.790Z,1.95
2023-05-07T11:53:41.313Z,1.67
2023-05-07T11:56:15.465Z,1.80
2023-05-07T11:58:43.318Z,1.60
2023-05-07T12:01:11.426Z,1.55
2023-05-07T12:03:40.912Z,1.40
2023-05-07T12:06:07.860Z,1.63
2023-05-07T12:08:37.126Z,1.27
2023-05-07T12:11:03.576Z,1.40
2023-05-07T12:13:30.164Z,2.20
2023-05-07T12:15:57.670Z,2.92
2023-05-07T12:18:24.909Z,2.03
2023-05-07T12:20:52.040Z,1.50
2023-05-07T12:23:18.692Z,1.90
2023-05-07T12:25:48.084Z,1.52
2023-05-07T12:28:18.742Z,1.50
2023-05-07T12:30:47.342Z,1.27
2023-05-07T12:33:17.801Z,1.30
2023-05-07T12:35:44.759Z,1.55
2023-05-07T12:38:14.171Z,1.30
2023-05-07T12:40:52.131Z,1.38
2023-05-07T12:43:20.800Z,1.30
2023-05-07T12:45:49.243Z,1.27
2023-05-07T12:48:16.231Z,1.40
2023-05-07T12:50:42.982Z,1.50
2023-05-07T12:53:16.051Z,1.30
2023-05-07T12:58:16.979Z,1.42
2023-05-07T13:00:44.554Z,1.20
2023-05-07T13:03:12.311Z,1.33
2023-05-07T13:05:38.855Z,1.23
2023-05-07T13:08:05.409Z,1.10
2023-05-07T13:10:31.929Z,1.17
2023-05-07T13:12:58.473Z,1.23
2023-05-07T13:15:25.141Z,1.65
2023-05-07T13:17:51.698Z,1.23
2023-05-07T13:20:18.406Z,1.45
2023-05-07T13:22:44.899Z,1.10
2023-05-07T13:25:11.545Z,1.42
2023-05-07T13:27:38.257Z,1.15
2023-05-07T13:30:06.631Z,1.02
2023-05-07T13:32:33.231Z,1.13
2023-05-07T13:34:59.781Z,1.17
2023-05-07T13:37:26.263Z,1.35
2023-05-07T13:39:52.719Z,1.00
2023-05-07T13:42:19.220Z,0.95
2023-05-07T13:44:46.387Z,1.50
2023-05-07T13:47:13.017Z,1.17
2023-05-07T13:49:39.516Z,0.80
2023-05-07T13:52:06.246Z,1.00
2023-05-07T13:54:32.814Z,1.77
2023-05-07T13:56:59.296Z,1.00
2023-05-07T13:59:25.906Z,1.50
2023-05-07T14:01:52.419Z,1.85
2023-05-07T14:04:18.871Z,1.35
2023-05-07T14:06:45.314Z,1.40
2023-05-07T14:09:14.290Z,1.15
2023-05-07T14:11:40.893Z,1.30
2023-05-07T14:14:07.435Z,1.35
2023-05-07T14:16:33.995Z,1.10
2023-05-07T14:19:00.518Z,1.30
2023-05-07T14:21:27.044Z,2.08
2023-05-07T14:23:53.546Z,1.20
2023-05-07T14:26:20.835Z,1.45
2023-05-07T14:28:47.641Z,1.30
2023-05-07T14:31:14.284Z,1.80
2023-05-07T14:33:42.236Z,1.13
2023-05-07T14:36:09.156Z,1.30
2023-05-07T14:38:35.763Z,1.30
2023-05-07T14:41:02.350Z,1.35
2023-05-07T14:43:28.959Z,1.30
2023-05-07T14:45:55.546Z,1.15
2023-05-07T14:48:22.078Z,1.13
2023-05-07T14:50:49.512Z,1.20
2023-05-07T14:53:16.739Z,1.85
2023-05-07T14:55:43.443Z,2.03
2023-05-07T14:58:10.291Z,1.75
2023-05-07T15:00:36.906Z,1.10
2023-05-07T15:03:09.099Z,1.10
2023-05-07T15:05:36.328Z,0.98
2023-05-07T15:08:02.970Z,1.23
2023-05-07T15:10:29.773Z,1.50
2023-05-07T15:12:56.322Z,1.60
2023-05-07T15:15:22.825Z,1.20
2023-05-07T15:17:49.328Z,1.48
2023-05-07T15:20:16.025Z,0.68
2023-05-07T15:22:42.799Z,0.90
2023-05-07T15:25:10.674Z,0.88
2023-05-07T15:27:37.372Z,0.75
2023-05-07T15:30:04.657Z,1.08
2023-05-07T15:32:31.190Z,0.60
2023-05-07T15:34:57.939Z,1.20
2023-05-07T15:37:24.517Z,1.23
2023-05-07T15:39:51.112Z,1.48
2023-05-07T15:42:17.789Z,0.93
2023-05-07T15:44:44.276Z,0.90
2023-05-07T15:47:10.741Z,0.85
2023-05-07T15:49:37.168Z,0.73
2023-05-07T15:52:03.771Z,1.00
2023-05-07T15:54:31.141Z,0.90
2023-05-07T15:56:57.664Z,0.90
2023-05-07T15:59:24.331Z,0.80
2023-05-07T16:01:51.297Z,0.90
2023-05-07T16:04:17.909Z,1.00
2023-05-07T16:06:47.253Z,1.25
2023-05-07T16:09:14.500Z,1.50
2023-05-07T16:11:41.036Z,8.52
2023-05-07T16:14:07.569Z,2.30
2023-05-07T16:16:35.161Z,1.17
2023-05-07T16:19:02.225Z,2.15
2023-05-07T16:21:29.011Z,4.32
2023-05-07T16:23:55.476Z,1.80
2023-05-07T16:26:21.981Z,2.28
2023-05-07T16:28:48.697Z,1.45
2023-05-07T16:31:15.307Z,0.90
2023-05-07T16:33:41.805Z,1.98
2023-05-07T16:36:08.538Z,1.13
2023-05-07T16:38:35.123Z,1.10
2023-05-07T16:41:01.811Z,1.50
2023-05-07T16:43:28.421Z,1.25
2023-05-07T16:45:55.099Z,1.23
2023-05-07T16:48:21.946Z,1.05
2023-05-07T16:50:48.546Z,1.50
2023-05-07T16:53:15.117Z,1.20
2023-05-07T16:55:41.785Z,1.23
2023-05-07T16:58:10.094Z,1.02
2023-05-07T17:00:49.092Z,1.15
2023-05-07T17:03:17.009Z,1.30
2023-05-07T17:05:43.656Z,1.05
2023-05-07T17:08:10.285Z,1.20
2023-05-07T17:10:36.807Z,1.35
2023-05-07T17:13:03.635Z,1.63
2023-05-07T17:15:30.260Z,2.03
2023-05-07T17:17:56.863Z,1.60
2023-05-07T17:20:23.412Z,1.40
2023-05-07T17:22:49.925Z,1.60
2023-05-07T17:25:16.611Z,1.20
2023-05-07T17:27:43.128Z,1.13
2023-05-07T17:30:10.210Z,1.10
2023-05-07T17:32:36.857Z,1.48
2023-05-07T17:35:04.012Z,0.90
2023-05-07T17:37:30.546Z,1.50
2023-05-07T17:39:57.095Z,0.85
2023-05-07T17:42:23.621Z,1.00
2023-05-07T17:44:50.094Z,0.70
2023-05-07T17:47:16.975Z,1.17
2023-05-07T17:49:43.557Z,1.10
2023-05-07T17:52:10.341Z,0.77
2023-05-07T17:54:36.852Z,0.75
2023-05-07T17:57:03.678Z,1.10
2023-05-07T17:59:30.591Z,0.90
2023-05-07T18:01:57.188Z,0.80
2023-05-07T18:04:26.329Z,0.80
2023-05-07T18:06:53.209Z,0.90
2023-05-07T18:09:19.794Z,1.00
2023-05-07T18:11:46.287Z,0.98
2023-05-07T18:14:12.737Z,1.23
2023-05-07T18:16:39.296Z,1.00
2023-05-07T18:19:05.815Z,1.00
2023-05-07T18:21:32.612Z,0.93
2023-05-07T18:23:59.171Z,0.90
2023-05-07T18:26:25.762Z,0.82
2023-05-07T18:28:52.438Z,0.95
2023-05-07T18:31:20.609Z,0.93
2023-05-07T18:33:47.176Z,1.27
2023-05-07T18:36:13.873Z,0.93
2023-05-07T18:38:42.597Z,1.25
2023-05-07T18:41:09.208Z,1.35
2023-05-07T18:43:36.031Z,1.15
2023-05-07T18:46:02.731Z,0.90
2023-05-07T18:48:29.273Z,1.08
2023-05-07T18:50:56.804Z,1.25
2023-05-07T18:53:23.860Z,0.93
2023-05-07T18:55:51.650Z,0.80
2023-05-07T18:58:19.964Z,0.88
2023-05-07T19:00:50.258Z,0.90
2023-05-07T19:03:17.221Z,0.90
2023-05-07T19:05:44.705Z,0.70
2023-05-07T19:08:11.552Z,0.80
2023-05-07T19:10:38.257Z,0.77
2023-05-07T19:13:05.063Z,1.00
2023-05-07T19:15:31.582Z,1.35
2023-05-07T19:17:58.086Z,0.90
2023-05-07T19:20:24.620Z,1.10
2023-05-07T19:22:51.137Z,0.85
2023-05-07T19:25:18.282Z,1.10
2023-05-07T19:27:44.869Z,0.90
2023-05-07T19:30:11.650Z,1.20
2023-05-07T19:32:38.790Z,1.30
2023-05-07T19:35:05.911Z,1.20
2023-05-07T19:37:32.468Z,1.00
2023-05-07T19:40:04.885Z,0.90
2023-05-07T19:42:31.820Z,1.15
2023-05-07T19:44:58.317Z,1.00
2023-05-07T19:47:24.831Z,1.38
2023-05-07T19:49:51.358Z,1.00
2023-05-07T19:52:17.890Z,1.02
2023-05-07T19:54:44.452Z,1.23
2023-05-07T19:57:11.031Z,1.15
2023-05-07T19:59:37.571Z,1.33
2023-05-07T20:02:04.137Z,0.98
2023-05-07T20:04:33.107Z,1.77
2023-05-07T20:06:59.754Z,1.00
2023-05-07T20:09:26.240Z,0.95
2023-05-07T20:11:52.773Z,0.93
2023-05-07T20:14:19.251Z,1.13
2023-05-07T20:16:45.939Z,0.90
2023-05-07T20:19:12.440Z,0.70
2023-05-07T20:21:38.909Z,0.70
2023-05-07T20:24:06.448Z,0.85
2023-05-07T20:26:32.915Z,0.75
2023-05-07T20:28:59.424Z,1.08
2023-05-07T20:31:26.055Z,1.02
2023-05-07T20:33:53.016Z,0.90
2023-05-07T20:36:19.517Z,1.33
2023-05-07T20:38:46.164Z,0.80
2023-05-07T20:41:14.252Z,0.90
2023-05-07T20:43:40.831Z,0.73
2023-05-07T20:46:07.793Z,0.80
2023-05-07T20:48:34.786Z,0.85
2023-05-07T20:51:02.486Z,0.80
2023-05-07T20:53:30.322Z,0.88
2023-05-07T20:55:56.949Z,0.77
2023-05-07T20:58:26.536Z,1.08
2023-05-07T21:00:53.316Z,0.70
2023-05-07T21:03:20.514Z,0.70
2023-05-07T21:05:54.476Z,0.82
2023-05-07T21:08:21.166Z,0.70
2023-05-07T21:10:48.115Z,0.93
2023-05-07T21:13:15.383Z,0.80
2023-05-07T21:15:46.026Z,0.73
2023-05-07T21:18:13.229Z,0.70
2023-05-07T21:20:39.714Z,0.70
2023-05-07T21:23:06.411Z,0.80
2023-05-07T21:25:33.074Z,0.80
2023-05-07T21:27:59.961Z,0.63
2023-05-07T21:30:26.481Z,1.13
2023-05-07T21:32:55.411Z,0.95
2023-05-07T21:35:22.055Z,1.02
2023-05-07T21:37:48.574Z,0.70
2023-05-07T21:40:15.327Z,0.80
2023-05-07T21:42:42.049Z,0.80
2023-05-07T21:45:09.012Z,0.70
2023-05-07T21:47:35.576Z,0.70
2023-05-07T21:50:02.480Z,0.60
2023-05-07T21:52:29.073Z,0.80
2023-05-07T21:54:55.654Z,0.98
2023-05-07T21:57:22.244Z,0.80
2023-05-07T21:59:48.701Z,0.75
2023-05-07T22:02:15.210Z,0.77
2023-05-07T22:04:41.752Z,1.08
2023-05-07T22:07:08.235Z,1.00
2023-05-07T22:09:34.781Z,0.80
2023-05-07T22:12:01.885Z,0.60
2023-05-07T22:14:28.403Z,0.70
2023-05-07T22:16:54.887Z,0.80
2023-05-07T22:19:21.515Z,0.95
2023-05-07T22:21:48.002Z,0.90
2023-05-07T22:24:14.495Z,0.80
2023-05-07T22:26:41.004Z,0.90
2023-05-07T22:29:07.506Z,0.65
2023-05-07T22:31:34.042Z,0.75
2023-05-07T22:34:01.270Z,0.80
2023-05-07T22:36:27.824Z,0.80
2023-05-07T22:38:54.264Z,0.77
2023-05-07T22:41:21.039Z,0.93
2023-05-07T22:43:47.568Z,0.85
2023-05-07T22:46:14.326Z,1.15
2023-05-07T22:48:40.915Z,0.80
2023-05-07T22:51:13.997Z,0.90
2023-05-07T22:53:40.563Z,1.08
2023-05-07T22:56:07.679Z,0.80
2023-05-07T22:58:34.534Z,0.80
2023-05-07T23:01:02.366Z,0.82
2023-05-07T23:03:29.017Z,0.80
2023-05-07T23:05:55.768Z,0.88
2023-05-07T23:08:23.244Z,0.75
2023-05-07T23:10:49.823Z,0.75
2023-05-07T23:13:17.523Z,0.70
2023-05-07T23:15:44.356Z,0.98
2023-05-07T23:18:11.240Z,0.82
2023-05-07T23:20:39.696Z,0.73
2023-05-07T23:23:06.280Z,0.77
2023-05-07T23:25:32.863Z,0.60
2023-05-07T23:27:59.310Z,0.80
2023-05-07T23:30:26.041Z,0.68
2023-05-07T23:32:52.907Z,1.00
2023-05-07T23:35:19.668Z,0.70
2023-05-07T23:37:46.280Z,0.90
2023-05-07T23:40:13.026Z,1.00
2023-05-07T23:42:39.637Z,1.00
2023-05-07T23:45:06.546Z,0.80
2023-05-07T23:47:33.053Z,0.85
2023-05-07T23:49:59.565Z,0.80
2023-05-07T23:52:26.088Z,0.85
2023-05-07T23:54:52.577Z,0.90
2023-05-07T23:57:19.148Z,1.00
2023-05-07T23:59:45.687Z,1.35
